Time;durP1;ratioP1;P1;durP2;ratioP2;P2;SDS_P1;SDS_P2;PMS_P1;PMS_P2;Temp;Humidity;BMP_temperature;BMP_pressure;BME280_temperature;BME280_humidity;BME280_pressure;Samples;Min_cycle;Max_cycle;Signal;HPM_P1;HPM_P2
2021/10/31 00:02:03;;;;;;;3.92;1.58;;;27.80;95.20;;;;;;5145449;28;20019;-51
2021/10/31 00:04:30;;;;;;;8.52;2.85;;;27.80;95.30;;;;;;5145442;28;20019;-49
2021/10/31 00:06:57;;;;;;;8.73;2.20;;;27.80;95.00;;;;;;5143929;28;20027;-54
2021/10/31 00:09:23;;;;;;;8.80;2.17;;;27.80;94.90;;;;;;5143346;28;20042;-53
2021/10/31 00:11:50;;;;;;;7.65;1.55;;;27.80;94.90;;;;;;5125393;28;20327;-55
2021/10/31 00:14:17;;;;;;;5.38;1.42;;;27.80;94.80;;;;;;5143181;28;20034;-59
2021/10/31 00:16:43;;;;;;;4.95;1.63;;;27.80;94.70;;;;;;5142834;28;20022;-59
2021/10/31 00:19:11;;;;;;;4.57;1.40;;;27.80;94.70;;;;;;5145215;27;20015;-52
2021/10/31 00:21:37;;;;;;;3.53;1.00;;;27.70;94.70;;;;;;5147653;27;20019;-53
2021/10/31 00:24:04;;;;;;;5.47;2.25;;;27.80;94.70;;;;;;5149374;27;20095;-52
2021/10/31 00:26:31;;;;;;;6.93;2.40;;;27.80;94.70;;;;;;5130896;27;20197;-53
2021/10/31 00:28:58;;;;;;;3.50;2.00;;;27.70;94.90;;;;;;5149165;27;20291;-50
2021/10/31 00:31:25;;;;;;;9.52;2.60;;;27.70;94.70;;;;;;5148726;27;20053;-54
2021/10/31 00:33:52;;;;;;;11.27;6.78;;;27.70;94.80;;;;;;5148930;27;20030;-53
2021/10/31 00:36:19;;;;;;;14.65;5.10;;;27.70;94.80;;;;;;5130449;27;20015;-51
2021/10/31 00:38:45;;;;;;;9.88;4.63;;;27.70;94.90;;;;;;5149012;27;20034;-54
2021/10/31 00:41:12;;;;;;;11.27;5.72;;;27.70;94.90;;;;;;5148679;27;20019;-52
2021/10/31 00:43:39;;;;;;;7.82;5.82;;;27.70;94.90;;;;;;5148518;27;20043;-54
2021/10/31 00:46:05;;;;;;;7.15;4.72;;;27.70;94.90;;;;;;5148390;27;20019;-52
2021/10/31 00:48:32;;;;;;;10.07;6.18;;;27.70;94.90;;;;;;5148392;27;20133;-53
2021/10/31 00:50:59;;;;;;;10.20;7.93;;;27.70;94.90;;;;;;5148314;27;20082;-55
2021/10/31 00:53:27;;;;;;;19.42;11.02;;;27.60;94.90;;;;;;5130240;27;20065;-54
2021/10/31 00:55:54;;;;;;;13.82;5.97;;;27.60;94.90;;;;;;5148016;27;20027;-52
2021/10/31 00:58:21;;;;;;;6.93;5.32;;;27.60;94.90;;;;;;5148339;27;20025;-54
2021/10/31 01:00:48;;;;;;;10.63;4.50;;;27.60;94.90;;;;;;5148475;27;20250;-54
2021/10/31 01:03:15;;;;;;;8.38;4.03;;;27.60;94.90;;;;;;5148202;27;20023;-54
2021/10/31 01:05:47;;;;;;;11.77;3.53;;;27.60;94.90;;;;;;5147919;27;20019;-54
2021/10/31 01:08:15;;;;;;;6.95;2.70;;;27.60;94.80;;;;;;5148559;27;20129;-55
2021/10/31 01:10:51;;;;;;;7.97;2.80;;;27.60;94.80;;;;;;5147984;27;20027;-53
2021/10/31 01:13:49;;;;;;;8.00;2.20;;;27.60;94.90;;;;;;5148315;27;20295;-53
2021/10/31 01:16:33;;;;;;;4.40;2.10;;;27.50;94.80;;;;;;5148009;27;20071;-53
2021/10/31 01:19:03;;;;;;;8.32;1.95;;;27.50;95.10;;;;;;5148540;27;20046;-51
2021/10/31 01:21:35;;;;;;;6.82;1.80;;;27.50;94.80;;;;;;5147977;27;20315;-52
2021/10/31 01:24:05;;;;;;;3.92;2.55;;;27.50;94.80;;;;;;5129704;27;20034;-55
2021/10/31 01:26:47;;;;;;;7.75;3.30;;;27.50;94.90;;;;;;5147954;27;20221;-54
2021/10/31 01:29:35;;;;;;;8.05;3.17;;;27.50;94.90;;;;;;5148262;27;20027;-53
2021/10/31 01:32:05;;;;;;;8.07;2.60;;;27.50;94.90;;;;;;5146497;27;20319;-54
2021/10/31 01:34:50;;;;;;;6.72;2.25;;;27.50;94.90;;;;;;5148310;27;20181;-55
2021/10/31 01:37:35;;;;;;;6.65;2.95;;;27.50;94.80;;;;;;5147611;27;20315;-55
2021/10/31 01:40:05;;;;;;;7.13;2.30;;;27.50;94.90;;;;;;5129212;27;20034;-52
2021/10/31 01:42:41;;;;;;;10.48;2.95;;;27.50;94.80;;;;;;5128963;27;20209;-53
2021/10/31 01:45:19;;;;;;;9.20;3.50;;;27.50;94.70;;;;;;5129486;27;20030;-52
2021/10/31 01:48:02;;;;;;;8.50;3.72;;;27.50;94.70;;;;;;5147581;27;20065;-52
2021/10/31 01:50:45;;;;;;;8.18;3.78;;;27.50;94.60;;;;;;5147401;27;20246;-53
2021/10/31 01:53:29;;;;;;;6.45;2.70;;;27.40;94.60;;;;;;5147462;27;20046;-54
2021/10/31 01:56:08;;;;;;;12.80;2.50;;;27.40;94.60;;;;;;5147147;27;20050;-55
2021/10/31 01:58:38;;;;;;;11.30;2.42;;;27.40;94.50;;;;;;5147387;27;20035;-54
2021/10/31 02:01:07;;;;;;;15.45;2.10;;;27.40;94.50;;;;;;5147416;27;20019;-54
2021/10/31 02:03:38;;;;;;;10.50;1.80;;;27.40;94.50;;;;;;5147263;27;20233;-53
2021/10/31 02:06:06;;;;;;;4.78;1.40;;;27.40;94.60;;;;;;5147258;27;20019;-59
2021/10/31 02:08:35;;;;;;;5.63;1.17;;;27.40;94.70;;;;;;5147302;27;20026;-53
2021/10/31 02:11:03;;;;;;;8.13;1.60;;;27.40;94.60;;;;;;5146853;27;20034;-52
2021/10/31 02:13:31;;;;;;;7.78;1.30;;;27.40;94.60;;;;;;5147213;27;20025;-54
2021/10/31 02:15:59;;;;;;;7.65;1.50;;;27.40;94.60;;;;;;5146864;27;20034;-54
2021/10/31 02:18:27;;;;;;;7.70;1.40;;;27.40;94.50;;;;;;5146892;27;20019;-58
2021/10/31 02:20:58;;;;;;;8.75;1.67;;;27.40;94.50;;;;;;5146953;27;20011;-56
2021/10/31 02:23:25;;;;;;;12.85;3.40;;;27.40;94.50;;;;;;5146798;27;20029;-56
2021/10/31 02:25:52;;;;;;;14.70;7.72;;;27.30;94.50;;;;;;5146938;27;20038;-58
2021/10/31 02:28:19;;;;;;;13.60;7.90;;;27.30;94.60;;;;;;5146637;27;20026;-57
2021/10/31 02:30:47;;;;;;;15.00;10.60;;;27.30;94.50;;;;;;5146600;27;20030;-56
2021/10/31 02:33:14;;;;;;;10.68;5.43;;;27.30;94.60;;;;;;5146271;27;20072;-57
2021/10/31 02:35:40;;;;;;;9.80;5.85;;;27.40;94.60;;;;;;5146632;27;20022;-57
2021/10/31 02:38:10;;;;;;;10.07;6.20;;;27.30;94.50;;;;;;5147572;27;20015;-56
2021/10/31 02:40:36;;;;;;;9.60;5.13;;;27.30;94.50;;;;;;5146161;27;20083;-59
2021/10/31 02:43:05;;;;;;;9.60;5.25;;;27.30;94.50;;;;;;5128084;27;20047;-58
2021/10/31 02:45:32;;;;;;;11.07;5.15;;;27.30;94.60;;;;;;5128687;27;20088;-58
2021/10/31 02:48:03;;;;;;;10.25;4.63;;;27.30;94.60;;;;;;5146395;27;20027;-53
2021/10/31 02:50:37;;;;;;;10.00;4.13;;;27.30;94.60;;;;;;5146654;27;20053;-58
2021/10/31 02:53:35;;;;;;;11.73;4.15;;;27.30;94.50;;;;;;5112188;27;20023;-52
2021/10/31 02:56:36;;;;;;;7.53;3.63;;;27.30;94.60;;;;;;5138817;27;20046;-55
2021/10/31 02:59:20;;;;;;;5.68;3.22;;;27.30;94.60;;;;;;5111969;27;20330;-53
2021/10/31 03:01:48;;;;;;;5.47;2.55;;;27.30;94.60;;;;;;5128112;27;20023;-55
2021/10/31 03:04:33;;;;;;;5.75;2.28;;;27.30;94.60;;;;;;5146568;27;20264;-54
2021/10/31 03:07:01;;;;;;;5.78;2.90;;;27.30;94.60;;;;;;5146120;27;20339;-53
2021/10/31 03:09:29;;;;;;;7.50;3.90;;;27.30;94.60;;;;;;5145818;27;20015;-54
2021/10/31 03:12:00;;;;;;;8.95;4.93;;;27.30;94.70;;;;;;5145588;27;20206;-54
2021/10/31 03:14:27;;;;;;;11.70;4.53;;;27.30;94.70;;;;;;5145992;27;20249;-52
2021/10/31 03:16:54;;;;;;;10.23;5.05;;;27.30;94.60;;;;;;5145927;27;20339;-52
2021/10/31 03:19:21;;;;;;;11.20;5.63;;;27.30;94.60;;;;;;5145679;27;20029;-48
2021/10/31 03:21:48;;;;;;;11.52;6.55;;;27.30;94.70;;;;;;5145631;27;20038;-50
2021/10/31 03:24:15;;;;;;;11.38;5.90;;;27.30;94.70;;;;;;5146038;27;20090;-48
2021/10/31 03:26:42;;;;;;;12.27;5.93;;;27.30;94.70;;;;;;5127116;27;20022;-50
2021/10/31 03:29:09;;;;;;;11.35;5.47;;;27.30;94.70;;;;;;5146077;27;20027;-49
2021/10/31 03:31:36;;;;;;;9.07;5.10;;;27.30;94.70;;;;;;5145496;27;20185;-51
2021/10/31 03:34:02;;;;;;;9.02;3.95;;;27.30;94.70;;;;;;5145561;27;20022;-56
2021/10/31 03:36:29;;;;;;;8.25;3.80;;;27.30;94.60;;;;;;5145551;27;20019;-58
2021/10/31 03:38:56;;;;;;;11.15;3.45;;;27.30;94.60;;;;;;5145521;27;20023;-55
2021/10/31 03:41:22;;;;;;;7.22;2.70;;;27.30;94.70;;;;;;5145493;27;20011;-59
2021/10/31 03:43:49;;;;;;;5.47;2.85;;;27.30;94.60;;;;;;5145100;27;20046;-54
2021/10/31 03:46:16;;;;;;;8.13;2.22;;;27.30;94.40;;;;;;5145848;27;20011;-55
2021/10/31 03:48:43;;;;;;;7.13;1.90;;;27.20;94.30;;;;;;5145896;27;20033;-53
2021/10/31 03:51:12;;;;;;;7.40;2.17;;;27.30;94.30;;;;;;5145867;27;20046;-53
2021/10/31 03:53:39;;;;;;;4.05;1.58;;;27.20;94.20;;;;;;5145320;27;20103;-54
2021/10/31 03:56:06;;;;;;;4.07;1.35;;;27.30;94.20;;;;;;5145439;27;20026;-52
2021/10/31 03:58:33;;;;;;;2.50;1.00;;;27.20;94.10;;;;;;5145232;27;20169;-47
2021/10/31 04:01:02;;;;;;;10.23;1.65;;;27.20;94.00;;;;;;5126765;28;20019;-48
2021/10/31 04:03:29;;;;;;;7.85;1.45;;;27.20;94.00;;;;;;5126809;28;20019;-51
2021/10/31 04:05:56;;;;;;;10.98;1.90;;;27.20;94.00;;;;;;5144930;28;20027;-50
2021/10/31 04:08:23;;;;;;;6.45;1.75;;;27.20;94.20;;;;;;5145266;28;20408;-53
2021/10/31 04:10:50;;;;;;;8.90;1.70;;;27.20;94.20;;;;;;5145186;28;20027;-54
2021/10/31 04:13:16;;;;;;;4.97;1.50;;;27.20;94.20;;;;;;5145546;28;20181;-59
2021/10/31 04:15:43;;;;;;;6.53;1.75;;;27.10;94.20;;;;;;5144892;28;20058;-56
2021/10/31 04:18:13;;;;;;;5.40;1.67;;;27.10;94.20;;;;;;5145122;28;20039;-55
2021/10/31 04:20:40;;;;;;;9.88;2.25;;;27.10;94.30;;;;;;5144917;28;20339;-46
2021/10/31 04:23:06;;;;;;;8.00;1.58;;;27.10;94.40;;;;;;5144911;28;20068;-48
2021/10/31 04:25:33;;;;;;;4.85;1.23;;;27.10;94.20;;;;;;5144953;28;20034;-50
2021/10/31 04:28:00;;;;;;;4.57;1.38;;;27.10;94.20;;;;;;5144835;27;20031;-52
2021/10/31 04:30:26;;;;;;;3.67;1.25;;;27.10;94.20;;;;;;5144776;28;20312;-52
2021/10/31 04:32:53;;;;;;;7.55;1.08;;;27.00;94.20;;;;;;5144939;28;20098;-54
2021/10/31 04:35:20;;;;;;;5.32;1.27;;;27.00;94.10;;;;;;5144371;28;20069;-54
2021/10/31 04:37:47;;;;;;;4.82;1.65;;;27.00;94.20;;;;;;5144416;28;20300;-55
2021/10/31 04:40:16;;;;;;;7.22;1.75;;;27.00;94.10;;;;;;5144494;28;20015;-53
2021/10/31 04:42:43;;;;;;;8.02;1.88;;;27.00;94.10;;;;;;5144219;28;20042;-52
2021/10/31 04:45:10;;;;;;;5.28;1.67;;;26.90;94.10;;;;;;5144349;28;20086;-50
2021/10/31 04:47:37;;;;;;;5.28;2.15;;;26.90;94.10;;;;;;5144401;28;20019;-53
2021/10/31 04:50:04;;;;;;;6.57;2.03;;;26.90;94.10;;;;;;5144329;28;20015;-48
2021/10/31 04:52:32;;;;;;;6.20;2.10;;;26.90;94.00;;;;;;5144538;28;20311;-48
2021/10/31 04:54:59;;;;;;;8.05;2.60;;;26.90;94.00;;;;;;5144433;28;20023;-50
2021/10/31 04:57:25;;;;;;;6.70;2.83;;;26.90;93.90;;;;;;5144307;28;20015;-54
2021/10/31 04:59:52;;;;;;;5.78;2.40;;;26.90;93.90;;;;;;5144375;28;20046;-54
2021/10/31 05:02:18;;;;;;;9.18;3.50;;;26.80;93.80;;;;;;5144561;28;20082;-59
2021/10/31 05:04:45;;;;;;;6.47;3.67;;;26.80;93.70;;;;;;5145558;27;20031;-56
2021/10/31 05:07:15;;;;;;;9.95;3.60;;;26.80;93.80;;;;;;5148448;27;20015;-58
2021/10/31 05:09:42;;;;;;;7.47;2.58;;;26.80;93.70;;;;;;5129925;27;20033;-59
2021/10/31 05:12:09;;;;;;;6.68;2.70;;;26.70;93.70;;;;;;5148017;27;20028;-58
2021/10/31 05:14:36;;;;;;;7.70;2.97;;;26.70;93.70;;;;;;5148473;27;20030;-57
2021/10/31 05:17:03;;;;;;;6.80;2.30;;;26.70;93.70;;;;;;5148002;27;20019;-58
2021/10/31 05:19:29;;;;;;;6.75;2.08;;;26.60;93.60;;;;;;5148094;27;20025;-58
2021/10/31 05:21:59;;;;;;;10.00;3.33;;;26.60;93.60;;;;;;5148315;27;20019;-59
2021/10/31 05:24:25;;;;;;;11.73;3.13;;;26.60;93.60;;;;;;5148908;27;20148;-59
2021/10/31 05:26:52;;;;;;;18.33;3.90;;;26.60;93.60;;;;;;5147945;27;20333;-53
2021/10/31 05:29:19;;;;;;;12.45;3.22;;;26.60;93.80;;;;;;5148259;27;20094;-53
2021/10/31 05:31:45;;;;;;;10.80;2.67;;;26.60;93.80;;;;;;5147961;27;20037;-52
2021/10/31 05:34:12;;;;;;;6.53;1.95;;;26.60;93.90;;;;;;5147955;27;20042;-55
2021/10/31 05:36:39;;;;;;;8.10;2.08;;;26.60;93.90;;;;;;5147840;27;20041;-53
2021/10/31 05:39:06;;;;;;;8.52;2.05;;;26.50;93.80;;;;;;5148384;27;20219;-54
2021/10/31 05:41:32;;;;;;;7.70;2.08;;;26.50;93.90;;;;;;5147506;27;20364;-55
2021/10/31 05:43:59;;;;;;;6.10;1.80;;;26.50;94.30;;;;;;5147952;27;20319;-53
2021/10/31 05:46:27;;;;;;;5.72;1.75;;;26.50;94.00;;;;;;5147589;27;20238;-53
2021/10/31 05:48:53;;;;;;;3.20;1.35;;;26.50;94.00;;;;;;5147447;27;20027;-55
2021/10/31 05:51:20;;;;;;;4.45;1.38;;;26.50;94.10;;;;;;5129339;27;20042;-54
2021/10/31 05:53:47;;;;;;;5.63;1.40;;;26.50;94.00;;;;;;5147770;27;20023;-55
2021/10/31 05:56:15;;;;;;;4.18;1.10;;;26.50;94.10;;;;;;5129122;27;20053;-55
2021/10/31 05:58:41;;;;;;;2.67;1.10;;;26.50;94.00;;;;;;5147382;27;20027;-52
2021/10/31 06:01:08;;;;;;;4.65;0.98;;;26.40;94.00;;;;;;5147152;27;20018;-53
2021/10/31 06:03:35;;;;;;;3.70;1.00;;;26.40;94.00;;;;;;5147067;27;20023;-53
2021/10/31 06:06:01;;;;;;;4.30;0.98;;;26.40;94.00;;;;;;5128873;27;20023;-54
2021/10/31 06:08:28;;;;;;;2.20;0.73;;;26.40;93.90;;;;;;5147422;27;20019;-52
2021/10/31 06:10:55;;;;;;;2.90;0.77;;;26.40;93.80;;;;;;5146896;27;20019;-50
2021/10/31 06:13:22;;;;;;;3.40;0.50;;;26.40;93.80;;;;;;5147272;27;20019;-53
2021/10/31 06:15:49;;;;;;;4.90;0.50;;;26.40;93.60;;;;;;5146962;27;20029;-54
2021/10/31 06:18:17;;;;;;;3.55;0.50;;;26.40;93.60;;;;;;5146385;27;20015;-52
2021/10/31 06:20:45;;;;;;;4.47;0.73;;;26.40;93.50;;;;;;5146888;27;20204;-52
2021/10/31 06:23:14;;;;;;;1.45;0.30;;;26.30;93.50;;;;;;5146843;27;20083;-51
2021/10/31 06:25:41;;;;;;;1.88;0.70;;;26.30;93.30;;;;;;5146564;27;20034;-56
2021/10/31 06:28:08;;;;;;;1.70;0.40;;;26.30;93.30;;;;;;5146936;27;20100;-54
2021/10/31 06:30:35;;;;;;;3.00;0.68;;;26.30;93.40;;;;;;5146671;27;20242;-53
2021/10/31 06:33:02;;;;;;;2.05;0.43;;;26.30;93.50;;;;;;5146587;27;20056;-54
2021/10/31 06:35:29;;;;;;;2.58;0.50;;;26.30;93.60;;;;;;5146525;27;20034;-49
2021/10/31 06:37:56;;;;;;;2.10;0.50;;;26.20;93.60;;;;;;5146743;27;20291;-53
2021/10/31 06:40:22;;;;;;;4.13;1.20;;;26.20;93.50;;;;;;5146265;27;20023;-53
2021/10/31 06:42:49;;;;;;;7.18;3.78;;;26.30;93.60;;;;;;5146263;27;20110;-54
2021/10/31 06:45:16;;;;;;;11.52;7.38;;;26.20;93.60;;;;;;5146288;27;20019;-56
2021/10/31 06:47:43;;;;;;;9.50;6.25;;;26.20;93.60;;;;;;5146151;27;20243;-54
2021/10/31 06:50:10;;;;;;;7.80;4.50;;;26.20;93.50;;;;;;5146263;27;20231;-54
2021/10/31 06:52:36;;;;;;;7.43;4.80;;;26.20;93.50;;;;;;5145810;27;20055;-53
2021/10/31 06:55:05;;;;;;;8.52;5.45;;;26.20;93.50;;;;;;5145893;27;20018;-55
2021/10/31 06:57:32;;;;;;;7.57;4.45;;;26.20;93.40;;;;;;5145970;27;20015;-55
2021/10/31 06:59:59;;;;;;;8.63;3.50;;;26.20;93.30;;;;;;5145965;27;20038;-54
2021/10/31 07:02:25;;;;;;;9.00;3.50;;;26.20;93.20;;;;;;5145772;27;20073;-56
2021/10/31 07:04:52;;;;;;;6.07;3.60;;;26.20;93.10;;;;;;5127508;27;20232;-55
2021/10/31 07:07:19;;;;;;;5.43;3.33;;;26.10;93.00;;;;;;5145690;27;20018;-55
2021/10/31 07:09:46;;;;;;;5.03;3.55;;;26.10;93.10;;;;;;5145804;27;20085;-55
2021/10/31 07:12:12;;;;;;;5.03;3.67;;;26.10;93.20;;;;;;5145549;27;20372;-54
2021/10/31 07:14:39;;;;;;;4.47;2.50;;;26.10;93.00;;;;;;5145975;27;20027;-51
2021/10/31 07:17:06;;;;;;;4.65;1.77;;;26.10;93.00;;;;;;5145739;27;20076;-53
2021/10/31 07:19:32;;;;;;;2.63;1.50;;;26.10;93.00;;;;;;5146014;27;20075;-51
2021/10/31 07:21:59;;;;;;;3.88;1.13;;;26.00;92.90;;;;;;5145824;27;20021;-51
2021/10/31 07:24:26;;;;;;;3.00;1.00;;;26.00;93.00;;;;;;5145941;27;20102;-49
2021/10/31 07:26:53;;;;;;;1.58;0.70;;;26.10;93.00;;;;;;5145215;27;20026;-50
2021/10/31 07:29:19;;;;;;;2.55;0.80;;;26.00;93.00;;;;;;5144784;27;20023;-46
2021/10/31 07:31:48;;;;;;;2.63;0.70;;;26.00;93.10;;;;;;5145317;27;20026;-48
2021/10/31 07:34:15;;;;;;;3.85;1.10;;;26.00;93.20;;;;;;5145293;27;20027;-47
2021/10/31 07:36:42;;;;;;;3.53;0.80;;;26.00;93.30;;;;;;5145273;27;20011;-47
2021/10/31 07:39:09;;;;;;;3.88;1.00;;;26.00;93.30;;;;;;5145637;27;20054;-47
2021/10/31 07:41:37;;;;;;;2.95;1.00;;;26.00;93.40;;;;;;5145041;27;20014;-48
2021/10/31 07:44:05;;;;;;;3.40;0.88;;;25.90;93.30;;;;;;5145194;27;20046;-50
2021/10/31 07:46:33;;;;;;;3.33;0.90;;;26.00;93.40;;;;;;5145214;27;20007;-53
2021/10/31 07:49:02;;;;;;;4.55;0.77;;;25.90;93.40;;;;;;5145200;27;20065;-59
2021/10/31 07:51:29;;;;;;;4.68;0.95;;;25.90;93.40;;;;;;5145003;27;20196;-59
2021/10/31 07:53:56;;;;;;;3.60;0.70;;;25.90;93.40;;;;;;5145008;27;20057;-59
2021/10/31 07:56:25;;;;;;;3.03;0.82;;;25.90;93.30;;;;;;5145141;27;20019;-59
2021/10/31 07:58:55;;;;;;;3.58;0.88;;;25.90;93.30;;;;;;5145170;27;20027;-55
2021/10/31 08:01:23;;;;;;;2.67;0.90;;;25.90;93.30;;;;;;5144766;27;20015;-55
2021/10/31 08:03:52;;;;;;;2.42;0.70;;;25.90;93.40;;;;;;5145123;27;20322;-56
2021/10/31 08:06:20;;;;;;;4.13;0.90;;;25.90;93.40;;;;;;5144795;27;20064;-55
2021/10/31 08:08:47;;;;;;;2.30;0.60;;;25.90;93.40;;;;;;5145012;28;20023;-48
2021/10/31 08:11:14;;;;;;;2.75;0.50;;;25.90;93.40;;;;;;5144880;28;20045;-48
2021/10/31 08:13:41;;;;;;;3.50;0.80;;;25.80;93.40;;;;;;5145026;28;20027;-50
2021/10/31 08:16:08;;;;;;;1.98;0.40;;;25.80;93.50;;;;;;5144431;28;20027;-48
2021/10/31 08:18:35;;;;;;;1.95;0.30;;;25.90;93.50;;;;;;5144794;28;20027;-49
2021/10/31 08:21:02;;;;;;;2.67;0.50;;;25.90;93.50;;;;;;5144431;28;20050;-44
2021/10/31 08:23:29;;;;;;;0.98;0.32;;;25.80;93.50;;;;;;5144503;28;20023;-45
2021/10/31 08:25:58;;;;;;;2.95;0.30;;;25.80;93.60;;;;;;5137837;27;20215;-48
2021/10/31 08:28:25;;;;;;;0.43;0.30;;;25.90;93.70;;;;;;5136150;27;20031;-48
2021/10/31 08:30:58;;;;;;;2.75;0.30;;;25.90;93.80;;;;;;5135221;28;20011;-47
2021/10/31 08:33:42;;;;;;;1.35;0.30;;;25.80;93.70;;;;;;5144509;28;20116;-52
2021/10/31 08:36:10;;;;;;;1.67;0.30;;;25.80;93.60;;;;;;5144366;28;20044;-50
2021/10/31 08:38:36;;;;;;;2.70;0.50;;;25.80;93.60;;;;;;5144805;28;20094;-51
2021/10/31 08:41:03;;;;;;;1.75;0.57;;;25.80;93.50;;;;;;5147684;27;20019;-52
2021/10/31 08:43:30;;;;;;;2.97;0.40;;;25.80;93.50;;;;;;5148555;27;20132;-49
2021/10/31 08:45:57;;;;;;;1.65;0.30;;;25.80;93.60;;;;;;5148759;27;20313;-52
2021/10/31 08:48:24;;;;;;;2.63;0.52;;;25.80;93.50;;;;;;5148841;27;20042;-49
2021/10/31 08:50:51;;;;;;;3.58;0.45;;;25.80;93.60;;;;;;5148417;27;20023;-52
2021/10/31 08:53:19;;;;;;;2.75;0.50;;;25.80;93.70;;;;;;5148812;27;20031;-51
2021/10/31 08:55:45;;;;;;;3.67;0.40;;;25.70;93.60;;;;;;5148521;27;20019;-50
2021/10/31 08:58:13;;;;;;;1.85;0.30;;;25.80;93.60;;;;;;5146811;27;20023;-51
2021/10/31 09:00:40;;;;;;;1.83;0.38;;;25.70;93.50;;;;;;5139140;27;20410;-51
2021/10/31 09:03:08;;;;;;;2.30;0.45;;;25.70;93.60;;;;;;5127871;28;20020;-48
2021/10/31 09:05:36;;;;;;;1.77;0.43;;;25.70;93.60;;;;;;5127646;28;20171;-50
2021/10/31 09:08:03;;;;;;;3.08;0.60;;;25.70;93.60;;;;;;5138110;27;20031;-47
2021/10/31 09:10:30;;;;;;;3.55;0.60;;;25.70;93.60;;;;;;5128496;27;20268;-50
2021/10/31 09:12:58;;;;;;;2.67;0.43;;;25.70;93.60;;;;;;5127090;28;20035;-53
2021/10/31 09:15:25;;;;;;;1.65;0.35;;;25.70;93.50;;;;;;5127351;28;20023;-49
2021/10/31 09:17:52;;;;;;;2.05;0.40;;;25.70;93.60;;;;;;5126282;28;20294;-47
2021/10/31 09:20:20;;;;;;;3.90;0.50;;;25.70;93.50;;;;;;5127286;28;20330;-49
2021/10/31 09:22:47;;;;;;;2.13;0.60;;;25.70;93.40;;;;;;5127337;28;20046;-50
2021/10/31 09:25:14;;;;;;;2.30;0.40;;;25.70;93.50;;;;;;5139369;27;20019;-48
2021/10/31 09:27:41;;;;;;;2.25;0.50;;;25.70;93.30;;;;;;5146425;27;20039;-51
2021/10/31 09:30:08;;;;;;;4.68;0.60;;;25.70;93.20;;;;;;5146462;27;20015;-48
2021/10/31 09:32:37;;;;;;;2.60;0.50;;;25.70;93.20;;;;;;5146086;27;20065;-46
2021/10/31 09:35:10;;;;;;;1.33;0.30;;;25.70;93.20;;;;;;5142123;27;20079;-57
2021/10/31 09:37:36;;;;;;;4.10;0.40;;;25.70;93.20;;;;;;5146101;27;20011;-48
2021/10/31 09:40:04;;;;;;;1.25;0.30;;;25.70;93.20;;;;;;5146198;27;20053;-49
2021/10/31 09:42:36;;;;;;;2.58;0.45;;;25.60;93.20;;;;;;5143104;27;20035;-46
2021/10/31 09:45:05;;;;;;;1.20;0.40;;;25.60;93.20;;;;;;5145999;27;20029;-51
2021/10/31 09:47:32;;;;;;;2.00;0.40;;;25.60;93.20;;;;;;5166776;27;20314;-49
2021/10/31 09:49:59;;;;;;;1.48;0.40;;;25.60;93.20;;;;;;5168026;27;20026;-55
2021/10/31 09:52:27;;;;;;;6.70;0.70;;;25.60;93.20;;;;;;5166946;27;20015;-54
2021/10/31 09:54:54;;;;;;;1.83;0.50;;;25.60;93.20;;;;;;5168039;27;20026;-55
2021/10/31 09:57:22;;;;;;;5.55;0.85;;;25.60;93.20;;;;;;5167807;27;20015;-53
2021/10/31 09:59:58;;;;;;;4.32;0.40;;;25.60;93.30;;;;;;5168160;27;20018;-54
2021/10/31 10:05:30;;;;;;;1.77;0.47;;;25.60;93.20;;;;;;5111762;27;20039;-55
2021/10/31 10:08:13;;;;;;;3.22;0.50;;;25.60;93.20;;;;;;5167489;27;20295;-56
2021/10/31 10:10:54;;;;;;;3.70;0.50;;;25.50;93.10;;;;;;5167745;27;20104;-55
2021/10/31 10:13:24;;;;;;;2.72;0.30;;;25.50;93.20;;;;;;5167857;27;20022;-55
2021/10/31 10:15:53;;;;;;;2.67;0.50;;;25.50;93.10;;;;;;5167561;27;20025;-47
2021/10/31 10:18:33;;;;;;;1.98;0.52;;;25.50;93.10;;;;;;5156637;27;20069;-44
2021/10/31 10:21:21;;;;;;;3.85;0.50;;;25.50;93.10;;;;;;5137613;27;20384;-43
2021/10/31 10:23:55;;;;;;;3.90;0.63;;;25.50;93.10;;;;;;5146944;27;20034;-44
2021/10/31 10:26:37;;;;;;;2.75;0.65;;;25.50;93.20;;;;;;5128283;27;20015;-43
2021/10/31 10:29:22;;;;;;;1.85;0.68;;;25.50;93.10;;;;;;5126181;28;20037;-44
2021/10/31 10:31:55;;;;;;;5.60;0.60;;;25.50;93.10;;;;;;5125741;28;20019;-45
2021/10/31 10:34:48;;;;;;;1.25;0.50;;;25.50;93.20;;;;;;5126175;28;20065;-45
2021/10/31 10:37:26;;;;;;;5.07;1.00;;;25.40;93.10;;;;;;5125678;28;20016;-48
2021/10/31 10:39:59;;;;;;;2.63;0.70;;;25.40;93.10;;;;;;5136419;27;20023;-47
2021/10/31 10:42:38;;;;;;;3.55;0.82;;;25.40;93.20;;;;;;5154572;27;20031;-47
2021/10/31 10:45:12;;;;;;;4.72;1.02;;;25.40;93.20;;;;;;5149252;27;20044;-44
2021/10/31 10:47:48;;;;;;;3.08;1.10;;;25.40;93.30;;;;;;5166872;27;20030;-52
2021/10/31 10:50:23;;;;;;;6.43;1.25;;;25.40;93.30;;;;;;5166968;27;20208;-47
2021/10/31 10:52:52;;;;;;;3.42;1.45;;;25.40;93.40;;;;;;5166737;27;20023;-50
2021/10/31 10:55:35;;;;;;;3.50;1.55;;;25.40;93.50;;;;;;5166669;27;20307;-50
2021/10/31 10:58:09;;;;;;;6.07;1.70;;;25.40;93.40;;;;;;5166829;27;20011;-50
2021/10/31 11:00:38;;;;;;;3.97;1.10;;;25.40;93.50;;;;;;5144199;27;20277;-46
2021/10/31 11:03:09;;;;;;;4.25;1.35;;;25.40;93.60;;;;;;5152259;27;20014;-47
2021/10/31 11:05:43;;;;;;;4.75;1.45;;;25.40;93.60;;;;;;5166456;27;20019;-48
2021/10/31 11:08:13;;;;;;;4.05;1.30;;;25.40;93.50;;;;;;5166978;27;20027;-52
2021/10/31 11:10:55;;;;;;;6.55;1.48;;;25.30;93.60;;;;;;5166479;27;20018;-59
2021/10/31 11:13:24;;;;;;;3.17;1.30;;;25.40;93.70;;;;;;5144111;27;20068;-49
2021/10/31 11:15:52;;;;;;;2.13;1.40;;;25.40;93.70;;;;;;5145728;27;20224;-49
2021/10/31 11:18:19;;;;;;;4.20;2.00;;;25.40;93.80;;;;;;5145748;27;20129;-49
2021/10/31 11:20:47;;;;;;;3.20;2.00;;;25.40;93.90;;;;;;5145953;27;20019;-55
2021/10/31 11:23:22;;;;;;;3.17;1.45;;;25.40;93.80;;;;;;5145705;27;20262;-54
2021/10/31 11:25:50;;;;;;;5.95;1.70;;;25.40;94.00;;;;;;5145432;27;20019;-46
2021/10/31 11:28:19;;;;;;;5.68;2.55;;;25.40;94.00;;;;;;5145563;27;20098;-47
2021/10/31 11:30:48;;;;;;;5.05;2.90;;;25.40;94.10;;;;;;5145479;27;20065;-47
2021/10/31 11:33:15;;;;;;;5.10;2.70;;;25.40;94.10;;;;;;5145454;27;20041;-52
2021/10/31 11:35:43;;;;;;;5.05;2.17;;;25.40;94.20;;;;;;5152004;27;20030;-56
2021/10/31 11:38:24;;;;;;;4.32;1.88;;;25.40;94.20;;;;;;5141001;27;20084;-52
2021/10/31 11:40:52;;;;;;;7.25;1.95;;;25.40;94.20;;;;;;5145230;27;20041;-52
2021/10/31 11:43:25;;;;;;;3.53;1.55;;;25.40;94.30;;;;;;5163070;27;20047;-52
2021/10/31 11:45:54;;;;;;;4.25;1.20;;;25.40;94.30;;;;;;5166016;27;20034;-51
2021/10/31 11:48:25;;;;;;;3.65;1.13;;;25.40;94.40;;;;;;5165880;27;20026;-51
2021/10/31 11:51:00;;;;;;;5.45;1.80;;;25.40;94.30;;;;;;5166064;27;20010;-52
2021/10/31 11:53:29;;;;;;;4.82;1.88;;;25.50;94.40;;;;;;5166299;27;20037;-52
2021/10/31 11:56:03;;;;;;;3.03;2.00;;;25.50;94.40;;;;;;5166361;27;20211;-49
2021/10/31 11:58:41;;;;;;;6.28;3.17;;;25.50;94.40;;;;;;5145947;27;20106;-49
2021/10/31 12:01:17;;;;;;;5.55;2.35;;;25.50;94.50;;;;;;5130165;27;20012;-47
2021/10/31 12:03:55;;;;;;;3.72;2.17;;;25.50;94.50;;;;;;5128073;28;20335;-51
2021/10/31 12:06:27;;;;;;;7.97;3.38;;;25.50;94.50;;;;;;5145206;27;20015;-51
2021/10/31 12:08:54;;;;;;;;;;;25.50;94.50;;;;;;5145899;28;20026;-51
2021/10/31 12:11:41;;;;;;;14.23;4.63;;;25.50;94.50;;;;;;5145771;28;19939;-50
2021/10/31 12:14:12;;;;;;;5.85;3.78;;;25.60;94.60;;;;;;5132045;27;20038;-51
2021/10/31 12:16:53;;;;;;;11.55;3.83;;;25.60;94.50;;;;;;5150709;27;20211;-54
2021/10/31 12:19:39;;;;;;;10.75;3.53;;;25.60;94.50;;;;;;5158673;27;20064;-48
2021/10/31 12:22:30;;;;;;;7.65;3.17;;;25.60;94.60;;;;;;5152056;27;20042;-54
2021/10/31 12:25:05;;;;;;;9.18;2.90;;;25.60;94.60;;;;;;5168591;27;20063;-48
2021/10/31 12:27:44;;;;;;;7.00;2.45;;;25.60;94.80;;;;;;5169635;27;20078;-49
2021/10/31 12:30:38;;;;;;;4.80;2.10;;;25.70;94.80;;;;;;5169816;27;20041;-50
2021/10/31 12:33:08;;;;;;;10.57;2.20;;;25.70;94.80;;;;;;5167471;27;20060;-49
2021/10/31 12:35:44;;;;;;;9.15;1.67;;;25.70;94.90;;;;;;5169446;27;20298;-51
2021/10/31 12:38:16;;;;;;;10.43;1.63;;;25.70;94.70;;;;;;5169110;27;20311;-55
2021/10/31 12:41:11;;;;;;;41.92;3.05;;;25.70;94.70;;;;;;5169567;27;20018;-49
2021/10/31 12:43:46;;;;;;;14.73;1.60;;;25.70;94.60;;;;;;5169602;27;20047;-49
2021/10/31 12:46:32;;;;;;;8.98;1.33;;;25.70;94.50;;;;;;5169747;27;20014;-49
2021/10/31 12:49:06;;;;;;;6.35;1.00;;;25.80;94.40;;;;;;5169543;27;20456;-49
2021/10/31 12:52:06;;;;;;;3.38;0.93;;;25.80;94.30;;;;;;5150812;27;20303;-48
2021/10/31 12:54:37;;;;;;;4.20;1.23;;;25.80;94.40;;;;;;5105530;28;20036;-53
2021/10/31 12:57:09;;;;;;;7.10;1.17;;;25.80;94.40;;;;;;5088577;28;20024;-53
2021/10/31 12:59:50;;;;;;;5.05;1.10;;;25.90;94.50;;;;;;5105658;28;20091;-50
2021/10/31 13:02:22;;;;;;;4.22;0.82;;;25.90;94.30;;;;;;5105624;28;20023;-48
2021/10/31 13:05:02;;;;;;;5.50;1.03;;;25.90;94.30;;;;;;5105608;28;20032;-46